sensor_id;sensor_type;location;lat;lon;timestamp;pressure;altitude;pressure_sealevel;temperature;humidity
21240;BME280;10778;48.962;9.018;2023-04-02T00:07:41;98281.94;;;7.82;97.61
21240;BME280;10778;48.962;9.018;2023-04-02T00:10:25;98282.59;;;7.84;97.80
21240;BME280;10778;48.962;9.018;2023-04-02T00:15:38;98284.00;;;7.78;97.89
21240;BME280;10778;48.962;9.018;2023-04-02T00:18:05;98286.47;;;7.90;96.03
21240;BME280;10778;48.962;9.018;2023-04-02T00:20:34;98294.16;;;7.91;96.12
21240;BME280;10778;48.962;9.018;2023-04-02T00:23:04;98289.63;;;7.83;96.22
21240;BME280;10778;48.962;9.018;2023-04-02T00:25:34;98289.34;;;7.87;95.70
21240;BME280;10778;48.962;9.018;2023-04-02T00:28:02;98301.34;;;7.89;95.73
21240;BME280;10778;48.962;9.018;2023-04-02T00:30:29;98303.28;;;7.87;95.59
21240;BME280;10778;48.962;9.018;2023-04-02T00:32:55;98301.22;;;7.91;95.43
21240;BME280;10778;48.962;9.018;2023-04-02T00:35:27;98308.63;;;7.86;96.02
21240;BME280;10778;48.962;9.018;2023-04-02T00:37:54;98306.47;;;7.81;97.00
21240;BME280;10778;48.962;9.018;2023-04-02T00:42:50;98306.03;;;7.76;96.89
21240;BME280;10778;48.962;9.018;2023-04-02T00:45:24;98309.34;;;7.78;97.18
21240;BME280;10778;48.962;9.018;2023-04-02T00:47:51;98313.63;;;7.69;98.00
21240;BME280;10778;48.962;9.018;2023-04-02T00:50:18;98315.97;;;7.72;98.06
21240;BME280;10778;48.962;9.018;2023-04-02T00:52:48;98316.94;;;7.71;98.34
21240;BME280;10778;48.962;9.018;2023-04-02T00:55:36;98316.78;;;7.73;98.19
21240;BME280;10778;48.962;9.018;2023-04-02T00:58:14;98318.72;;;7.71;99.00
21240;BME280;10778;48.962;9.018;2023-04-02T01:00:47;98323.84;;;7.62;98.94
21240;BME280;10778;48.962;9.018;2023-04-02T01:05:47;98327.25;;;7.73;99.21
21240;BME280;10778;48.962;9.018;2023-04-02T01:08:23;98329.19;;;7.61;99.38
21240;BME280;10778;48.962;9.018;2023-04-02T01:13:52;98328.66;;;7.57;100.00
21240;BME280;10778;48.962;9.018;2023-04-02T01:16:31;98336.22;;;7.60;100.00
21240;BME280;10778;48.962;9.018;2023-04-02T01:22:08;98339.09;;;7.37;100.00
21240;BME280;10778;48.962;9.018;2023-04-02T01:24:40;98346.16;;;7.47;100.00
21240;BME280;10778;48.962;9.018;2023-04-02T01:27:17;98339.94;;;7.38;100.00
21240;BME280;10778;48.962;9.018;2023-04-02T01:29:52;98345.72;;;7.42;100.00
21240;BME280;10778;48.962;9.018;2023-04-02T01:32:25;98349.00;;;7.34;100.00
21240;BME280;10778;48.962;9.018;2023-04-02T01:34:53;98345.59;;;7.43;100.00
21240;BME280;10778;48.962;9.018;2023-04-02T01:40:24;98346.97;;;7.37;100.00
21240;BME280;10778;48.962;9.018;2023-04-02T01:43:05;98349.75;;;7.46;100.00
21240;BME280;10778;48.962;9.018;2023-04-02T01:45:33;98351.78;;;7.32;100.00
21240;BME280;10778;48.962;9.018;2023-04-02T01:48:03;98359.91;;;7.29;100.00
21240;BME280;10778;48.962;9.018;2023-04-02T01:50:35;98364.69;;;7.24;100.00
21240;BME280;10778;48.962;9.018;2023-04-02T01:53:09;98356.44;;;7.29;100.00
21240;BME280;10778;48.962;9.018;2023-04-02T01:58:02;98364.56;;;7.25;100.00
21240;BME280;10778;48.962;9.018;2023-04-02T02:00:30;98360.88;;;7.28;100.00
21240;BME280;10778;48.962;9.018;2023-04-02T02:02:59;98366.34;;;7.25;100.00
21240;BME280;10778;48.962;9.018;2023-04-02T02:05:27;98365.66;;;7.23;100.00
21240;BME280;10778;48.962;9.018;2023-04-02T02:07:55;98362.53;;;7.29;100.00
21240;BME280;10778;48.962;9.018;2023-04-02T02:10:26;98372.16;;;7.29;100.00
21240;BME280;10778;48.962;9.018;2023-04-02T02:12:53;98371.19;;;7.30;100.00
21240;BME280;10778;48.962;9.018;2023-04-02T02:15:22;98368.72;;;7.28;100.00
21240;BME280;10778;48.962;9.018;2023-04-02T02:17:49;98371.34;;;7.38;100.00
21240;BME280;10778;48.962;9.018;2023-04-02T02:20:18;98378.75;;;7.33;100.00
21240;BME280;10778;48.962;9.018;2023-04-02T02:22:46;98378.34;;;7.28;100.00
21240;BME280;10778;48.962;9.018;2023-04-02T02:25:16;98373.69;;;7.31;100.00
21240;BME280;10778;48.962;9.018;2023-04-02T02:41:01;98389.50;;;7.30;100.00
21240;BME280;10778;48.962;9.018;2023-04-02T02:43:32;98387.84;;;7.29;100.00
21240;BME280;10778;48.962;9.018;2023-04-02T02:45:59;98396.66;;;7.28;100.00
21240;BME280;10778;48.962;9.018;2023-04-02T02:48:35;98401.91;;;7.28;100.00
21240;BME280;10778;48.962;9.018;2023-04-02T02:51:06;98397.50;;;7.28;100.00
21240;BME280;10778;48.962;9.018;2023-04-02T02:53:44;98407.00;;;7.29;100.00
21240;BME280;10778;48.962;9.018;2023-04-02T02:56:11;98404.63;;;7.26;100.00
21240;BME280;10778;48.962;9.018;2023-04-02T02:58:39;98405.75;;;7.23;100.00
21240;BME280;10778;48.962;9.018;2023-04-02T03:01:20;98411.53;;;7.27;100.00
21240;BME280;10778;48.962;9.018;2023-04-02T03:03:51;98408.09;;;7.26;100.00
21240;BME280;10778;48.962;9.018;2023-04-02T03:06:18;98409.31;;;7.22;100.00
21240;BME280;10778;48.962;9.018;2023-04-02T03:09:02;98414.28;;;7.25;100.00
21240;BME280;10778;48.962;9.018;2023-04-02T03:11:39;98418.69;;;7.25;100.00
21240;BME280;10778;48.962;9.018;2023-04-02T03:14:37;98419.38;;;7.27;100.00
21240;BME280;10778;48.962;9.018;2023-04-02T03:17:18;98423.66;;;7.28;100.00
21240;BME280;10778;48.962;9.018;2023-04-02T03:20:09;98414.00;;;7.29;100.00
21240;BME280;10778;48.962;9.018;2023-04-02T03:22:45;98425.56;;;7.26;100.00
21240;BME280;10778;48.962;9.018;2023-04-02T03:25:34;98427.22;;;7.27;100.00
21240;BME280;10778;48.962;9.018;2023-04-02T03:28:07;98435.78;;;7.29;100.00
21240;BME280;10778;48.962;9.018;2023-04-02T03:30:45;98436.19;;;7.24;100.00
21240;BME280;10778;48.962;9.018;2023-04-02T03:33:30;98441.16;;;7.28;100.00
21240;BME280;10778;48.962;9.018;2023-04-02T03:41:42;98443.38;;;7.32;100.00
21240;BME280;10778;48.962;9.018;2023-04-02T03:44:38;98453.69;;;7.34;100.00
21240;BME280;10778;48.962;9.018;2023-04-02T03:49:55;98459.06;;;7.32;100.00
21240;BME280;10778;48.962;9.018;2023-04-02T03:52:26;98469.53;;;7.32;100.00
21240;BME280;10778;48.962;9.018;2023-04-02T03:54:59;98469.63;;;7.21;100.00
21240;BME280;10778;48.962;9.018;2023-04-02T03:57:42;98472.91;;;7.13;100.00
21240;BME280;10778;48.962;9.018;2023-04-02T04:00:19;98469.72;;;7.09;100.00
21240;BME280;10778;48.962;9.018;2023-04-02T04:02:54;98473.13;;;7.00;100.00
21240;BME280;10778;48.962;9.018;2023-04-02T04:05:31;98476.97;;;6.96;100.00
21240;BME280;10778;48.962;9.018;2023-04-02T04:08:07;98480.41;;;6.96;100.00
21240;BME280;10778;48.962;9.018;2023-04-02T04:10:38;98479.44;;;6.97;100.00
21240;BME280;10778;48.962;9.018;2023-04-02T04:13:10;98493.25;;;6.78;100.00
21240;BME280;10778;48.962;9.018;2023-04-02T04:18:25;98494.72;;;6.71;100.00
21240;BME280;10778;48.962;9.018;2023-04-02T04:21:09;98496.38;;;6.72;100.00
21240;BME280;10778;48.962;9.018;2023-04-02T04:23:40;98496.25;;;6.74;100.00
21240;BME280;10778;48.962;9.018;2023-04-02T04:26:27;98496.25;;;6.74;100.00
21240;BME280;10778;48.962;9.018;2023-04-02T04:31:48;98505.16;;;6.71;100.00
21240;BME280;10778;48.962;9.018;2023-04-02T04:34:25;98515.25;;;6.76;100.00
21240;BME280;10778;48.962;9.018;2023-04-02T04:36:58;98513.97;;;6.70;100.00
21240;BME280;10778;48.962;9.018;2023-04-02T04:39:43;98514.41;;;6.75;100.00
21240;BME280;10778;48.962;9.018;2023-04-02T04:42:18;98522.75;;;6.69;100.00
21240;BME280;10778;48.962;9.018;2023-04-02T04:44:52;98526.44;;;6.66;100.00
21240;BME280;10778;48.962;9.018;2023-04-02T04:47:27;98524.78;;;6.65;100.00
21240;BME280;10778;48.962;9.018;2023-04-02T04:50:01;98533.59;;;6.64;100.00
21240;BME280;10778;48.962;9.018;2023-04-02T04:52:36;98531.44;;;6.69;100.00
21240;BME280;10778;48.962;9.018;2023-04-02T04:58:15;98539.66;;;6.65;100.00
21240;BME280;10778;48.962;9.018;2023-04-02T05:01:09;98543.41;;;6.72;100.00
21240;BME280;10778;48.962;9.018;2023-04-02T05:06:36;98557.44;;;6.71;100.00
21240;BME280;10778;48.962;9.018;2023-04-02T05:12:04;98560.75;;;6.73;100.00
21240;BME280;10778;48.962;9.018;2023-04-02T05:14:48;98565.63;;;6.78;100.00
21240;BME280;10778;48.962;9.018;2023-04-02T05:17:30;98567.00;;;6.82;100.00
21240;BME280;10778;48.962;9.018;2023-04-02T05:20:04;98563.59;;;6.81;100.00
21240;BME280;10778;48.962;9.018;2023-04-02T05:22:52;98569.50;;;6.83;100.00
21240;BME280;10778;48.962;9.018;2023-04-02T05:25:28;98571.16;;;6.85;100.00
21240;BME280;10778;48.962;9.018;2023-04-02T05:28:24;98571.81;;;6.77;100.00
21240;BME280;10778;48.962;9.018;2023-04-02T05:31:13;98576.91;;;6.78;100.00
21240;BME280;10778;48.962;9.018;2023-04-02T05:33:45;98576.34;;;6.75;100.00
21240;BME280;10778;48.962;9.018;2023-04-02T05:36:24;98586.91;;;6.73;100.00
21240;BME280;10778;48.962;9.018;2023-04-02T05:38:56;98587.31;;;6.68;100.00
21240;BME280;10778;48.962;9.018;2023-04-02T05:41:44;98594.91;;;6.72;100.00
21240;BME280;10778;48.962;9.018;2023-04-02T05:44:24;98592.13;;;6.73;100.00
21240;BME280;10778;48.962;9.018;2023-04-02T05:47:15;98592.84;;;6.96;100.00
21240;BME280;10778;48.962;9.018;2023-04-02T05:52:25;98598.66;;;7.00;100.00
21240;BME280;10778;48.962;9.018;2023-04-02T05:55:18;98603.00;;;7.11;100.00
21240;BME280;10778;48.962;9.018;2023-04-02T05:57:51;98605.34;;;7.14;100.00
21240;BME280;10778;48.962;9.018;2023-04-02T06:00:38;98609.50;;;7.17;100.00
21240;BME280;10778;48.962;9.018;2023-04-02T06:05:56;98609.78;;;7.14;100.00
21240;BME280;10778;48.962;9.018;2023-04-02T06:08:38;98614.16;;;7.13;100.00
21240;BME280;10778;48.962;9.018;2023-04-02T06:11:10;98613.56;;;7.09;100.00
21240;BME280;10778;48.962;9.018;2023-04-02T06:13:38;98620.94;;;7.16;100.00
21240;BME280;10778;48.962;9.018;2023-04-02T06:16:06;98624.63;;;7.13;100.00
21240;BME280;10778;48.962;9.018;2023-04-02T06:18:34;98625.97;;;7.07;100.00
21240;BME280;10778;48.962;9.018;2023-04-02T06:21:02;98632.84;;;7.08;100.00
21240;BME280;10778;48.962;9.018;2023-04-02T06:23:52;98643.31;;;7.08;100.00
21240;BME280;10778;48.962;9.018;2023-04-02T06:26:25;98639.28;;;7.04;100.00
21240;BME280;10778;48.962;9.018;2023-04-02T06:31:40;98650.59;;;7.05;100.00
21240;BME280;10778;48.962;9.018;2023-04-02T06:34:16;98649.56;;;6.96;100.00
21240;BME280;10778;48.962;9.018;2023-04-02T06:36:53;98659.53;;;7.02;100.00
21240;BME280;10778;48.962;9.018;2023-04-02T06:39:24;98659.84;;;7.09;100.00
21240;BME280;10778;48.962;9.018;2023-04-02T06:42:03;98660.09;;;7.06;100.00
21240;BME280;10778;48.962;9.018;2023-04-02T06:44:55;98666.38;;;7.15;100.00
21240;BME280;10778;48.962;9.018;2023-04-02T06:47:36;98676.84;;;7.15;100.00
21240;BME280;10778;48.962;9.018;2023-04-02T06:52:35;98677.84;;;7.23;100.00
21240;BME280;10778;48.962;9.018;2023-04-02T06:57:47;98682.53;;;7.41;100.00
21240;BME280;10778;48.962;9.018;2023-04-02T07:00:25;98682.97;;;7.46;100.00
21240;BME280;10778;48.962;9.018;2023-04-02T07:02:54;98695.53;;;7.52;100.00
21240;BME280;10778;48.962;9.018;2023-04-02T07:05:21;98696.25;;;7.54;100.00
21240;BME280;10778;48.962;9.018;2023-04-02T07:07:47;98698.72;;;7.56;100.00
21240;BME280;10778;48.962;9.018;2023-04-02T07:10:13;98702.63;;;7.62;100.00
21240;BME280;10778;48.962;9.018;2023-04-02T07:12:40;98705.22;;;7.62;100.00
21240;BME280;10778;48.962;9.018;2023-04-02T07:15:06;98706.38;;;7.69;100.00
21240;BME280;10778;48.962;9.018;2023-04-02T07:17:35;98710.72;;;7.80;100.00
21240;BME280;10778;48.962;9.018;2023-04-02T07:20:01;98712.94;;;7.85;100.00
21240;BME280;10778;48.962;9.018;2023-04-02T07:22:27;98713.50;;;7.88;100.00
21240;BME280;10778;48.962;9.018;2023-04-02T07:24:58;98711.84;;;7.87;100.00
21240;BME280;10778;48.962;9.018;2023-04-02T07:27:24;98711.78;;;7.99;100.00
21240;BME280;10778;48.962;9.018;2023-04-02T07:29:50;98718.34;;;7.93;100.00
21240;BME280;10778;48.962;9.018;2023-04-02T07:32:16;98721.69;;;7.95;100.00
21240;BME280;10778;48.962;9.018;2023-04-02T07:34:42;98722.94;;;8.01;100.00
21240;BME280;10778;48.962;9.018;2023-04-02T07:37:12;98728.84;;;7.93;100.00
21240;BME280;10778;48.962;9.018;2023-04-02T07:39:38;98732.19;;;8.05;100.00
21240;BME280;10778;48.962;9.018;2023-04-02T07:42:04;98741.19;;;8.12;100.00
21240;BME280;10778;48.962;9.018;2023-04-02T07:44:30;98745.75;;;8.20;100.00
21240;BME280;10778;48.962;9.018;2023-04-02T07:46:56;98738.25;;;8.97;100.00
21240;BME280;10778;48.962;9.018;2023-04-02T07:49:23;98743.38;;;8.99;100.00
21240;BME280;10778;48.962;9.018;2023-04-02T07:51:50;98744.72;;;8.73;100.00
21240;BME280;10778;48.962;9.018;2023-04-02T07:54:16;98749.47;;;9.38;100.00
21240;BME280;10778;48.962;9.018;2023-04-02T07:56:42;98758.88;;;9.31;100.00
21240;BME280;10778;48.962;9.018;2023-04-02T07:59:08;98765.91;;;9.60;100.00
21240;BME280;10778;48.962;9.018;2023-04-02T08:01:34;98767.56;;;9.51;100.00
21240;BME280;10778;48.962;9.018;2023-04-02T08:04:03;98771.88;;;9.43;100.00
21240;BME280;10778;48.962;9.018;2023-04-02T08:06:30;98774.88;;;9.48;100.00
21240;BME280;10778;48.962;9.018;2023-04-02T08:08:56;98777.38;;;9.49;99.18
21240;BME280;10778;48.962;9.018;2023-04-02T08:11:23;98773.91;;;9.49;99.77
21240;BME280;10778;48.962;9.018;2023-04-02T08:13:49;98774.78;;;9.39;100.00
21240;BME280;10778;48.962;9.018;2023-04-02T08:16:15;98781.28;;;9.45;98.61
21240;BME280;10778;48.962;9.018;2023-04-02T08:18:41;98781.53;;;9.52;98.67
21240;BME280;10778;48.962;9.018;2023-04-02T08:21:09;98784.63;;;10.15;99.72
21240;BME280;10778;48.962;9.018;2023-04-02T08:23:36;98792.38;;;9.96;94.70
21240;BME280;10778;48.962;9.018;2023-04-02T08:26:03;98795.47;;;9.82;94.93
21240;BME280;10778;48.962;9.018;2023-04-02T08:28:30;98795.75;;;9.69;93.31
21240;BME280;10778;48.962;9.018;2023-04-02T08:30:56;98799.84;;;10.01;94.96
21240;BME280;10778;48.962;9.018;2023-04-02T08:33:22;98804.03;;;9.84;92.66
21240;BME280;10778;48.962;9.018;2023-04-02T08:35:48;98807.44;;;10.04;93.91
21240;BME280;10778;48.962;9.018;2023-04-02T08:38:17;98805.47;;;10.16;93.21
21240;BME280;10778;48.962;9.018;2023-04-02T08:40:46;98813.19;;;9.70;92.67
21240;BME280;10778;48.962;9.018;2023-04-02T08:43:15;98819.25;;;9.80;92.17
21240;BME280;10778;48.962;9.018;2023-04-02T08:46:25;98819.38;;;9.79;93.29
21240;BME280;10778;48.962;9.018;2023-04-02T08:48:51;98829.91;;;9.69;93.86
21240;BME280;10778;48.962;9.018;2023-04-02T08:51:37;98826.19;;;9.62;94.82
21240;BME280;10778;48.962;9.018;2023-04-02T08:54:24;98835.72;;;9.53;92.69
21240;BME280;10778;48.962;9.018;2023-04-02T08:56:59;98833.63;;;9.57;93.61
21240;BME280;10778;48.962;9.018;2023-04-02T08:59:32;98846.06;;;9.54;93.62
21240;BME280;10778;48.962;9.018;2023-04-02T09:02:03;98845.09;;;9.65;92.86
21240;BME280;10778;48.962;9.018;2023-04-02T09:04:31;98847.59;;;9.67;92.33
21240;BME280;10778;48.962;9.018;2023-04-02T09:06:58;98848.44;;;9.67;92.28
21240;BME280;10778;48.962;9.018;2023-04-02T09:09:25;98852.97;;;9.75;91.38
21240;BME280;10778;48.962;9.018;2023-04-02T09:12:00;98855.50;;;9.57;90.98
21240;BME280;10778;48.962;9.018;2023-04-02T09:17:03;98854.09;;;9.92;90.83
21240;BME280;10778;48.962;9.018;2023-04-02T09:19:35;98860.03;;;10.04;88.58
21240;BME280;10778;48.962;9.018;2023-04-02T09:22:18;98856.81;;;10.30;88.21
21240;BME280;10778;48.962;9.018;2023-04-02T09:24:51;98863.50;;;10.05;87.12
21240;BME280;10778;48.962;9.018;2023-04-02T09:27:19;98870.47;;;10.34;88.25
21240;BME280;10778;48.962;9.018;2023-04-02T09:29:48;98870.72;;;10.60;87.66
21240;BME280;10778;48.962;9.018;2023-04-02T09:35:07;98874.06;;;10.62;85.35
21240;BME280;10778;48.962;9.018;2023-04-02T09:37:34;98880.84;;;10.55;85.25
21240;BME280;10778;48.962;9.018;2023-04-02T09:40:24;98878.78;;;10.39;85.77
21240;BME280;10778;48.962;9.018;2023-04-02T09:43:07;98888.91;;;10.24;87.41
21240;BME280;10778;48.962;9.018;2023-04-02T09:45:35;98886.16;;;10.25;87.78
21240;BME280;10778;48.962;9.018;2023-04-02T09:48:01;98887.09;;;10.44;86.33
21240;BME280;10778;48.962;9.018;2023-04-02T09:50:39;98892.16;;;10.65;85.84
21240;BME280;10778;48.962;9.018;2023-04-02T09:53:28;98897.94;;;10.69;84.63
21240;BME280;10778;48.962;9.018;2023-04-02T09:56:20;98892.81;;;10.77;83.31
21240;BME280;10778;48.962;9.018;2023-04-02T10:01:36;98905.28;;;10.75;84.20
21240;BME280;10778;48.962;9.018;2023-04-02T10:04:06;98909.28;;;10.79;86.43
21240;BME280;10778;48.962;9.018;2023-04-02T10:06:52;98916.78;;;10.74;84.68
21240;BME280;10778;48.962;9.018;2023-04-02T10:09:36;98903.13;;;10.99;83.24
21240;BME280;10778;48.962;9.018;2023-04-02T10:12:10;98908.72;;;11.14;82.90
21240;BME280;10778;48.962;9.018;2023-04-02T10:14:43;98913.88;;;11.33;81.68
21240;BME280;10778;48.962;9.018;2023-04-02T10:17:20;98919.69;;;11.55;81.93
21240;BME280;10778;48.962;9.018;2023-04-02T10:19:51;98920.22;;;11.41;80.24
21240;BME280;10778;48.962;9.018;2023-04-02T10:22:20;98925.78;;;12.02;81.36
21240;BME280;10778;48.962;9.018;2023-04-02T10:24:47;98925.78;;;12.20;79.57
21240;BME280;10778;48.962;9.018;2023-04-02T10:27:33;98924.59;;;12.41;76.69
21240;BME280;10778;48.962;9.018;2023-04-02T10:30:19;98926.50;;;12.83;76.26
21240;BME280;10778;48.962;9.018;2023-04-02T10:38:18;98931.41;;;12.43;77.28
21240;BME280;10778;48.962;9.018;2023-04-02T10:40:58;98934.81;;;12.62;75.48
21240;BME280;10778;48.962;9.018;2023-04-02T10:46:47;98938.78;;;12.66;75.78
21240;BME280;10778;48.962;9.018;2023-04-02T10:49:26;98941.69;;;12.81;74.97
21240;BME280;10778;48.962;9.018;2023-04-02T10:54:48;98946.31;;;13.14;74.75
21240;BME280;10778;48.962;9.018;2023-04-02T10:57:37;98954.16;;;12.71;75.78
21240;BME280;10778;48.962;9.018;2023-04-02T11:02:56;98954.94;;;12.89;74.93
21240;BME280;10778;48.962;9.018;2023-04-02T11:08:17;98964.91;;;13.04;71.01
21240;BME280;10778;48.962;9.018;2023-04-02T11:10:48;98959.13;;;13.08;70.65
21240;BME280;10778;48.962;9.018;2023-04-02T11:15:45;98967.78;;;13.19;71.95
21240;BME280;10778;48.962;9.018;2023-04-02T11:18:23;98961.22;;;12.97;72.50
21240;BME280;10778;48.962;9.018;2023-04-02T11:23:19;98966.72;;;13.03;72.37
21240;BME280;10778;48.962;9.018;2023-04-02T11:25:46;98970.81;;;12.98;74.16
21240;BME280;10778;48.962;9.018;2023-04-02T11:28:27;98976.47;;;12.32;76.44
21240;BME280;10778;48.962;9.018;2023-04-02T11:30:55;98981.31;;;12.36;75.73
21240;BME280;10778;48.962;9.018;2023-04-02T11:33:38;98985.22;;;12.14;76.07
21240;BME280;10778;48.962;9.018;2023-04-02T11:39:10;98995.38;;;11.63;79.89
21240;BME280;10778;48.962;9.018;2023-04-02T11:42:02;99002.47;;;11.62;81.16
21240;BME280;10778;48.962;9.018;2023-04-02T11:44:28;99004.56;;;11.59;79.93
21240;BME280;10778;48.962;9.018;2023-04-02T11:47:14;99002.56;;;11.43;80.08
21240;BME280;10778;48.962;9.018;2023-04-02T11:50:02;98991.38;;;11.41;80.71
21240;BME280;10778;48.962;9.018;2023-04-02T11:52:37;99000.06;;;11.41;81.17
21240;BME280;10778;48.962;9.018;2023-04-02T11:55:23;99005.38;;;11.31;80.47
21240;BME280;10778;48.962;9.018;2023-04-02T12:11:43;99023.25;;;11.65;81.16
21240;BME280;10778;48.962;9.018;2023-04-02T12:16:55;99014.38;;;11.66;79.60
21240;BME280;10778;48.962;9.018;2023-04-02T12:19:22;99011.97;;;11.73;80.06
21240;BME280;10778;48.962;9.018;2023-04-02T12:21:50;99024.72;;;11.78;80.80
21240;BME280;10778;48.962;9.018;2023-04-02T12:24:22;99026.38;;;11.79;79.11
21240;BME280;10778;48.962;9.018;2023-04-02T12:27:15;99029.63;;;11.63;81.83
21240;BME280;10778;48.962;9.018;2023-04-02T12:29:42;99026.19;;;11.62;81.59
21240;BME280;10778;48.962;9.018;2023-04-02T12:32:19;99033.59;;;11.77;82.24
21240;BME280;10778;48.962;9.018;2023-04-02T12:34:46;99039.69;;;11.77;81.50
21240;BME280;10778;48.962;9.018;2023-04-02T12:37:27;99052.25;;;11.28;84.11
21240;BME280;10778;48.962;9.018;2023-04-02T12:40:00;99058.00;;;10.93;88.06
21240;BME280;10778;48.962;9.018;2023-04-02T12:42:33;99066.22;;;10.80;88.44
21240;BME280;10778;48.962;9.018;2023-04-02T12:45:00;99069.25;;;10.36;91.20
21240;BME280;10778;48.962;9.018;2023-04-02T12:47:27;99083.63;;;10.22;90.75
21240;BME280;10778;48.962;9.018;2023-04-02T12:49:55;99082.75;;;10.02;92.17
21240;BME280;10778;48.962;9.018;2023-04-02T12:52:24;99084.78;;;9.89;92.63
21240;BME280;10778;48.962;9.018;2023-04-02T12:54:56;99098.84;;;9.78;95.40
21240;BME280;10778;48.962;9.018;2023-04-02T12:59:53;99098.09;;;9.56;96.30
21240;BME280;10778;48.962;9.018;2023-04-02T13:02:21;99098.38;;;9.32;94.72
21240;BME280;10778;48.962;9.018;2023-04-02T13:04:52;99103.75;;;9.30;95.02
21240;BME280;10778;48.962;9.018;2023-04-02T13:07:21;99105.72;;;9.38;94.51
21240;BME280;10778;48.962;9.018;2023-04-02T13:09:50;99111.56;;;9.20;95.58
21240;BME280;10778;48.962;9.018;2023-04-02T13:12:27;99110.91;;;9.49;95.59
21240;BME280;10778;48.962;9.018;2023-04-02T13:14:58;99116.38;;;9.36;96.31
21240;BME280;10778;48.962;9.018;2023-04-02T13:17:44;99116.34;;;9.27;97.94
21240;BME280;10778;48.962;9.018;2023-04-02T13:22:59;99125.97;;;9.05;99.78
21240;BME280;10778;48.962;9.018;2023-04-02T13:25:31;99129.44;;;9.05;99.12
21240;BME280;10778;48.962;9.018;2023-04-02T13:28:00;99130.13;;;8.65;99.59
21240;BME280;10778;48.962;9.018;2023-04-02T13:30:28;99131.63;;;8.67;100.00
21240;BME280;10778;48.962;9.018;2023-04-02T13:32:54;99134.63;;;8.63;99.89
21240;BME280;10778;48.962;9.018;2023-04-02T13:35:21;99130.19;;;8.75;100.00
21240;BME280;10778;48.962;9.018;2023-04-02T13:37:47;99146.41;;;8.68;100.00
21240;BME280;10778;48.962;9.018;2023-04-02T13:40:15;99142.50;;;8.63;100.00
21240;BME280;10778;48.962;9.018;2023-04-02T13:42:43;99143.31;;;8.75;100.00
21240;BME280;10778;48.962;9.018;2023-04-02T13:45:31;99142.38;;;8.64;100.00
21240;BME280;10778;48.962;9.018;2023-04-02T13:47:58;99142.66;;;8.38;100.00
21240;BME280;10778;48.962;9.018;2023-04-02T13:50:27;99146.97;;;8.39;100.00
21240;BME280;10778;48.962;9.018;2023-04-02T13:52:56;99161.25;;;8.58;100.00
21240;BME280;10778;48.962;9.018;2023-04-02T13:55:25;99163.81;;;8.70;100.00
21240;BME280;10778;48.962;9.018;2023-04-02T13:57:55;99156.81;;;8.47;100.00
21240;BME280;10778;48.962;9.018;2023-04-02T14:00:22;99156.25;;;8.44;100.00
21240;BME280;10778;48.962;9.018;2023-04-02T14:03:03;99158.63;;;8.35;100.00
21240;BME280;10778;48.962;9.018;2023-04-02T14:05:43;99163.06;;;8.35;99.63
21240;BME280;10778;48.962;9.018;2023-04-02T14:30:26;99205.00;;;8.12;95.72
21240;BME280;10778;48.962;9.018;2023-04-02T14:33:12;99212.84;;;8.12;95.65
21240;BME280;10778;48.962;9.018;2023-04-02T14:35:44;99209.75;;;7.95;95.89
21240;BME280;10778;48.962;9.018;2023-04-02T14:40:48;99219.06;;;8.00;95.25
21240;BME280;10778;48.962;9.018;2023-04-02T14:43:22;99220.84;;;7.99;95.16
21240;BME280;10778;48.962;9.018;2023-04-02T14:45:56;99228.25;;;8.05;95.39
21240;BME280;10778;48.962;9.018;2023-04-02T14:48:47;99229.06;;;8.06;95.03
21240;BME280;10778;48.962;9.018;2023-04-02T14:51:58;99228.69;;;7.99;94.52
21240;BME280;10778;48.962;9.018;2023-04-02T14:54:33;99231.34;;;7.88;95.32
21240;BME280;10778;48.962;9.018;2023-04-02T14:57:10;99239.66;;;8.04;95.78
21240;BME280;10778;48.962;9.018;2023-04-02T15:02:50;99242.50;;;8.01;94.48
21240;BME280;10778;48.962;9.018;2023-04-02T15:05:41;99231.81;;;7.93;93.53
21240;BME280;10778;48.962;9.018;2023-04-02T15:08:23;99247.28;;;7.96;94.68
21240;BME280;10778;48.962;9.018;2023-04-02T15:13:59;99249.97;;;7.72;94.34
21240;BME280;10778;48.962;9.018;2023-04-02T15:16:27;99256.59;;;7.53;94.84
21240;BME280;10778;48.962;9.018;2023-04-02T15:18:55;99253.44;;;7.72;95.22
21240;BME280;10778;48.962;9.018;2023-04-02T15:24:24;99257.22;;;7.68;94.61
21240;BME280;10778;48.962;9.018;2023-04-02T15:27:36;99267.59;;;7.69;94.95
21240;BME280;10778;48.962;9.018;2023-04-02T15:38:03;99265.34;;;7.76;93.45
21240;BME280;10778;48.962;9.018;2023-04-02T15:43:47;99283.78;;;7.63;92.63
21240;BME280;10778;48.962;9.018;2023-04-02T15:46:41;99281.66;;;7.68;92.38
21240;BME280;10778;48.962;9.018;2023-04-02T15:55:18;99292.53;;;7.51;91.32
21240;BME280;10778;48.962;9.018;2023-04-02T16:01:05;99301.25;;;7.63;92.01
21240;BME280;10778;48.962;9.018;2023-04-02T16:09:06;99312.03;;;7.82;88.41
21240;BME280;10778;48.962;9.018;2023-04-02T16:11:39;99317.97;;;7.73;88.31
21240;BME280;10778;48.962;9.018;2023-04-02T16:14:21;99313.16;;;7.67;87.85
21240;BME280;10778;48.962;9.018;2023-04-02T16:16:51;99325.44;;;7.66;87.63
21240;BME280;10778;48.962;9.018;2023-04-02T16:22:03;99333.25;;;7.55;90.20
21240;BME280;10778;48.962;9.018;2023-04-02T16:24:30;99332.28;;;7.45;90.23
21240;BME280;10778;48.962;9.018;2023-04-02T16:35:24;99350.91;;;7.16;88.56
21240;BME280;10778;48.962;9.018;2023-04-02T16:37:55;99359.16;;;7.22;88.36
21240;BME280;10778;48.962;9.018;2023-04-02T16:48:37;99380.28;;;6.95;88.67
21240;BME280;10778;48.962;9.018;2023-04-02T16:54:15;99392.59;;;6.93;88.67
21240;BME280;10778;48.962;9.018;2023-04-02T16:59:25;99404.34;;;6.74;89.08
21240;BME280;10778;48.962;9.018;2023-04-02T17:02:15;99407.91;;;6.73;88.62
21240;BME280;10778;48.962;9.018;2023-04-02T17:13:17;99436.88;;;6.70;88.83
21240;BME280;10778;48.962;9.018;2023-04-02T17:15:49;99437.81;;;6.69;89.06
21240;BME280;10778;48.962;9.018;2023-04-02T17:18:20;99447.03;;;6.62;88.23
21240;BME280;10778;48.962;9.018;2023-04-02T17:20:49;99450.25;;;6.39;88.08